sensor_id;sensor_type;location;lat;lon;timestamp;P1;durP1;ratioP1;P2;durP2;ratioP2
20966;SDS011;10642;50.682;18.510;2023-04-30T00:02:27;17.57;;;9.80;;
20966;SDS011;10642;50.682;18.510;2023-04-30T00:04:54;15.97;;;8.93;;
20966;SDS011;10642;50.682;18.510;2023-04-30T00:07:21;12.67;;;7.97;;
20966;SDS011;10642;50.682;18.510;2023-04-30T00:09:47;13.87;;;8.23;;
20966;SDS011;10642;50.682;18.510;2023-04-30T00:12:16;12.67;;;8.03;;
20966;SDS011;10642;50.682;18.510;2023-04-30T00:14:43;13.27;;;8.10;;
20966;SDS011;10642;50.682;18.510;2023-04-30T00:17:10;15.10;;;7.67;;
20966;SDS011;10642;50.682;18.510;2023-04-30T00:19:37;16.63;;;8.60;;
20966;SDS011;10642;50.682;18.510;2023-04-30T00:22:04;12.67;;;7.83;;
20966;SDS011;10642;50.682;18.510;2023-04-30T00:24:31;15.33;;;7.17;;
20966;SDS011;10642;50.682;18.510;2023-04-30T00:29:50;12.97;;;7.23;;
20966;SDS011;10642;50.682;18.510;2023-04-30T00:32:17;13.43;;;7.10;;
20966;SDS011;10642;50.682;18.510;2023-04-30T00:34:44;12.00;;;6.30;;
20966;SDS011;10642;50.682;18.510;2023-04-30T00:37:11;9.87;;;5.83;;
20966;SDS011;10642;50.682;18.510;2023-04-30T00:39:38;9.27;;;5.67;;
20966;SDS011;10642;50.682;18.510;2023-04-30T00:42:05;10.23;;;5.93;;
20966;SDS011;10642;50.682;18.510;2023-04-30T00:44:32;12.73;;;6.77;;
20966;SDS011;10642;50.682;18.510;2023-04-30T00:46:59;9.90;;;6.67;;
20966;SDS011;10642;50.682;18.510;2023-04-30T00:49:26;11.20;;;6.33;;
20966;SDS011;10642;50.682;18.510;2023-04-30T00:51:53;10.60;;;6.20;;
20966;SDS011;10642;50.682;18.510;2023-04-30T00:54:20;13.03;;;8.57;;
20966;SDS011;10642;50.682;18.510;2023-04-30T00:56:47;18.80;;;9.97;;
20966;SDS011;10642;50.682;18.510;2023-04-30T00:59:14;20.40;;;12.00;;
20966;SDS011;10642;50.682;18.510;2023-04-30T01:01:42;21.63;;;12.13;;
20966;SDS011;10642;50.682;18.510;2023-04-30T01:04:09;22.13;;;13.80;;
20966;SDS011;10642;50.682;18.510;2023-04-30T01:06:36;24.17;;;15.07;;
20966;SDS011;10642;50.682;18.510;2023-04-30T01:09:04;19.87;;;13.93;;
20966;SDS011;10642;50.682;18.510;2023-04-30T01:14:29;20.50;;;13.33;;
20966;SDS011;10642;50.682;18.510;2023-04-30T01:17:15;24.50;;;13.97;;
20966;SDS011;10642;50.682;18.510;2023-04-30T01:19:44;21.73;;;13.67;;
20966;SDS011;10642;50.682;18.510;2023-04-30T01:30:12;22.70;;;13.23;;
20966;SDS011;10642;50.682;18.510;2023-04-30T01:32:39;20.33;;;13.87;;
20966;SDS011;10642;50.682;18.510;2023-04-30T01:35:06;21.60;;;13.77;;
20966;SDS011;10642;50.682;18.510;2023-04-30T01:37:46;19.93;;;13.27;;
20966;SDS011;10642;50.682;18.510;2023-04-30T01:40:23;22.70;;;12.97;;
20966;SDS011;10642;50.682;18.510;2023-04-30T01:43:00;21.80;;;13.37;;
20966;SDS011;10642;50.682;18.510;2023-04-30T01:45:41;20.50;;;14.07;;
20966;SDS011;10642;50.682;18.510;2023-04-30T01:48:23;19.07;;;13.13;;
20966;SDS011;10642;50.682;18.510;2023-04-30T01:51:06;18.13;;;12.27;;
20966;SDS011;10642;50.682;18.510;2023-04-30T01:53:41;20.40;;;12.87;;
20966;SDS011;10642;50.682;18.510;2023-04-30T01:56:10;20.87;;;13.77;;
20966;SDS011;10642;50.682;18.510;2023-04-30T01:58:38;18.60;;;13.00;;
20966;SDS011;10642;50.682;18.510;2023-04-30T02:01:06;24.93;;;13.77;;
20966;SDS011;10642;50.682;18.510;2023-04-30T02:03:34;21.10;;;13.50;;
20966;SDS011;10642;50.682;18.510;2023-04-30T02:06:01;19.73;;;12.67;;
20966;SDS011;10642;50.682;18.510;2023-04-30T02:08:28;22.13;;;13.00;;
20966;SDS011;10642;50.682;18.510;2023-04-30T02:10:55;19.73;;;11.70;;
20966;SDS011;10642;50.682;18.510;2023-04-30T02:13:22;26.17;;;12.30;;
20966;SDS011;10642;50.682;18.510;2023-04-30T02:15:49;20.30;;;11.93;;
20966;SDS011;10642;50.682;18.510;2023-04-30T02:18:16;18.83;;;12.03;;
20966;SDS011;10642;50.682;18.510;2023-04-30T02:20:44;17.23;;;11.70;;
20966;SDS011;10642;50.682;18.510;2023-04-30T02:23:10;19.50;;;12.60;;
20966;SDS011;10642;50.682;18.510;2023-04-30T02:25:37;18.67;;;10.90;;
20966;SDS011;10642;50.682;18.510;2023-04-30T02:28:05;18.63;;;11.80;;
20966;SDS011;10642;50.682;18.510;2023-04-30T02:30:32;17.40;;;11.17;;
20966;SDS011;10642;50.682;18.510;2023-04-30T02:32:58;18.93;;;11.20;;
20966;SDS011;10642;50.682;18.510;2023-04-30T02:35:28;20.23;;;11.47;;
20966;SDS011;10642;50.682;18.510;2023-04-30T02:37:55;19.87;;;12.43;;
20966;SDS011;10642;50.682;18.510;2023-04-30T02:40:21;18.13;;;11.50;;
20966;SDS011;10642;50.682;18.510;2023-04-30T02:42:48;17.10;;;11.37;;
20966;SDS011;10642;50.682;18.510;2023-04-30T02:45:15;16.50;;;10.77;;
20966;SDS011;10642;50.682;18.510;2023-04-30T02:47:42;22.00;;;11.90;;
20966;SDS011;10642;50.682;18.510;2023-04-30T02:50:09;15.40;;;10.20;;
20966;SDS011;10642;50.682;18.510;2023-04-30T02:52:36;17.97;;;11.83;;
20966;SDS011;10642;50.682;18.510;2023-04-30T02:55:03;17.43;;;10.47;;
20966;SDS011;10642;50.682;18.510;2023-04-30T02:57:31;16.97;;;11.27;;
20966;SDS011;10642;50.682;18.510;2023-04-30T02:59:57;17.07;;;10.77;;
20966;SDS011;10642;50.682;18.510;2023-04-30T03:02:24;16.03;;;10.40;;
20966;SDS011;10642;50.682;18.510;2023-04-30T03:04:51;15.87;;;10.33;;
20966;SDS011;10642;50.682;18.510;2023-04-30T03:07:18;15.27;;;11.00;;
20966;SDS011;10642;50.682;18.510;2023-04-30T03:09:45;17.87;;;11.50;;
20966;SDS011;10642;50.682;18.510;2023-04-30T03:12:12;18.63;;;11.60;;
20966;SDS011;10642;50.682;18.510;2023-04-30T03:14:40;18.60;;;10.50;;
20966;SDS011;10642;50.682;18.510;2023-04-30T03:17:07;16.57;;;10.00;;
20966;SDS011;10642;50.682;18.510;2023-04-30T03:19:34;17.30;;;10.40;;
20966;SDS011;10642;50.682;18.510;2023-04-30T03:22:01;22.10;;;10.33;;
20966;SDS011;10642;50.682;18.510;2023-04-30T03:24:29;16.13;;;10.03;;
20966;SDS011;10642;50.682;18.510;2023-04-30T03:26:56;15.07;;;10.40;;
20966;SDS011;10642;50.682;18.510;2023-04-30T03:29:23;16.60;;;9.77;;
20966;SDS011;10642;50.682;18.510;2023-04-30T03:31:50;14.97;;;10.03;;
20966;SDS011;10642;50.682;18.510;2023-04-30T03:34:18;17.87;;;10.43;;
20966;SDS011;10642;50.682;18.510;2023-04-30T03:36:44;18.93;;;11.47;;
20966;SDS011;10642;50.682;18.510;2023-04-30T03:39:11;20.13;;;10.93;;
20966;SDS011;10642;50.682;18.510;2023-04-30T03:41:38;18.20;;;11.30;;
20966;SDS011;10642;50.682;18.510;2023-04-30T03:44:05;18.07;;;10.63;;
20966;SDS011;10642;50.682;18.510;2023-04-30T03:46:34;17.27;;;10.70;;
20966;SDS011;10642;50.682;18.510;2023-04-30T03:49:01;15.23;;;10.00;;
20966;SDS011;10642;50.682;18.510;2023-04-30T03:51:28;16.83;;;10.27;;
20966;SDS011;10642;50.682;18.510;2023-04-30T03:53:55;15.87;;;10.07;;
20966;SDS011;10642;50.682;18.510;2023-04-30T03:56:21;17.60;;;10.37;;
20966;SDS011;10642;50.682;18.510;2023-04-30T03:58:48;16.30;;;9.87;;
20966;SDS011;10642;50.682;18.510;2023-04-30T04:01:15;14.00;;;10.10;;
20966;SDS011;10642;50.682;18.510;2023-04-30T04:03:42;16.17;;;9.70;;
20966;SDS011;10642;50.682;18.510;2023-04-30T04:06:09;19.43;;;10.27;;
20966;SDS011;10642;50.682;18.510;2023-04-30T04:08:36;16.43;;;9.73;;
20966;SDS011;10642;50.682;18.510;2023-04-30T04:11:03;15.40;;;9.33;;
20966;SDS011;10642;50.682;18.510;2023-04-30T04:13:30;16.77;;;9.63;;
20966;SDS011;10642;50.682;18.510;2023-04-30T04:15:58;16.40;;;9.60;;
20966;SDS011;10642;50.682;18.510;2023-04-30T04:18:25;13.37;;;9.17;;
20966;SDS011;10642;50.682;18.510;2023-04-30T04:20:52;16.23;;;9.77;;
20966;SDS011;10642;50.682;18.510;2023-04-30T04:23:19;14.20;;;9.40;;
20966;SDS011;10642;50.682;18.510;2023-04-30T04:25:46;19.07;;;10.07;;
20966;SDS011;10642;50.682;18.510;2023-04-30T04:28:15;15.23;;;9.33;;
20966;SDS011;10642;50.682;18.510;2023-04-30T04:30:42;15.70;;;9.60;;
20966;SDS011;10642;50.682;18.510;2023-04-30T04:33:09;15.60;;;8.80;;
20966;SDS011;10642;50.682;18.510;2023-04-30T04:35:37;16.23;;;9.10;;
20966;SDS011;10642;50.682;18.510;2023-04-30T04:38:04;14.53;;;9.33;;
20966;SDS011;10642;50.682;18.510;2023-04-30T04:40:31;16.10;;;9.23;;
20966;SDS011;10642;50.682;18.510;2023-04-30T04:42:58;15.60;;;9.00;;
20966;SDS011;10642;50.682;18.510;2023-04-30T04:45:25;18.17;;;9.57;;
20966;SDS011;10642;50.682;18.510;2023-04-30T04:47:52;17.63;;;10.17;;
20966;SDS011;10642;50.682;18.510;2023-04-30T04:50:20;13.80;;;9.23;;
20966;SDS011;10642;50.682;18.510;2023-04-30T04:52:47;15.37;;;9.90;;
20966;SDS011;10642;50.682;18.510;2023-04-30T04:55:13;14.63;;;8.83;;
20966;SDS011;10642;50.682;18.510;2023-04-30T04:57:41;15.67;;;9.60;;
20966;SDS011;10642;50.682;18.510;2023-04-30T05:00:08;14.80;;;9.40;;
20966;SDS011;10642;50.682;18.510;2023-04-30T05:02:36;14.50;;;9.23;;
20966;SDS011;10642;50.682;18.510;2023-04-30T05:05:03;16.70;;;9.77;;
20966;SDS011;10642;50.682;18.510;2023-04-30T05:07:30;15.73;;;8.87;;
20966;SDS011;10642;50.682;18.510;2023-04-30T05:09:57;13.83;;;9.10;;
20966;SDS011;10642;50.682;18.510;2023-04-30T05:12:24;18.03;;;9.77;;
20966;SDS011;10642;50.682;18.510;2023-04-30T05:14:51;14.73;;;9.07;;
20966;SDS011;10642;50.682;18.510;2023-04-30T05:17:18;14.33;;;9.70;;
20966;SDS011;10642;50.682;18.510;2023-04-30T05:19:45;18.63;;;9.13;;
20966;SDS011;10642;50.682;18.510;2023-04-30T05:22:14;13.60;;;8.53;;
20966;SDS011;10642;50.682;18.510;2023-04-30T05:24:41;13.27;;;8.20;;
20966;SDS011;10642;50.682;18.510;2023-04-30T05:27:08;14.87;;;9.33;;
20966;SDS011;10642;50.682;18.510;2023-04-30T05:29:35;16.17;;;10.00;;
20966;SDS011;10642;50.682;18.510;2023-04-30T05:32:02;13.00;;;9.07;;
20966;SDS011;10642;50.682;18.510;2023-04-30T05:34:29;22.90;;;11.00;;
20966;SDS011;10642;50.682;18.510;2023-04-30T05:36:56;18.00;;;9.67;;
20966;SDS011;10642;50.682;18.510;2023-04-30T05:39:23;13.60;;;9.17;;
20966;SDS011;10642;50.682;18.510;2023-04-30T05:41:50;15.73;;;9.00;;
20966;SDS011;10642;50.682;18.510;2023-04-30T05:44:18;13.17;;;9.30;;
20966;SDS011;10642;50.682;18.510;2023-04-30T05:46:45;14.93;;;9.17;;
20966;SDS011;10642;50.682;18.510;2023-04-30T05:49:12;15.00;;;8.33;;
20966;SDS011;10642;50.682;18.510;2023-04-30T05:51:39;14.20;;;8.13;;
20966;SDS011;10642;50.682;18.510;2023-04-30T05:54:06;11.53;;;7.67;;
20966;SDS011;10642;50.682;18.510;2023-04-30T05:56:33;15.40;;;7.93;;
20966;SDS011;10642;50.682;18.510;2023-04-30T05:59:00;14.43;;;7.30;;
20966;SDS011;10642;50.682;18.510;2023-04-30T06:01:26;12.33;;;6.90;;
20966;SDS011;10642;50.682;18.510;2023-04-30T06:03:54;10.73;;;6.70;;
20966;SDS011;10642;50.682;18.510;2023-04-30T06:06:21;11.90;;;7.27;;
20966;SDS011;10642;50.682;18.510;2023-04-30T06:08:48;13.50;;;8.40;;
20966;SDS011;10642;50.682;18.510;2023-04-30T06:11:15;10.83;;;7.20;;
20966;SDS011;10642;50.682;18.510;2023-04-30T06:13:42;12.87;;;7.90;;
20966;SDS011;10642;50.682;18.510;2023-04-30T06:16:09;16.70;;;8.30;;
20966;SDS011;10642;50.682;18.510;2023-04-30T06:18:36;14.70;;;7.73;;
20966;SDS011;10642;50.682;18.510;2023-04-30T06:21:03;12.23;;;7.33;;
20966;SDS011;10642;50.682;18.510;2023-04-30T06:23:30;11.30;;;7.37;;
20966;SDS011;10642;50.682;18.510;2023-04-30T06:25:57;11.37;;;7.57;;
20966;SDS011;10642;50.682;18.510;2023-04-30T06:28:23;14.53;;;7.63;;
20966;SDS011;10642;50.682;18.510;2023-04-30T06:30:51;14.70;;;7.50;;
20966;SDS011;10642;50.682;18.510;2023-04-30T06:33:19;12.03;;;7.17;;
20966;SDS011;10642;50.682;18.510;2023-04-30T06:35:47;14.13;;;6.70;;
20966;SDS011;10642;50.682;18.510;2023-04-30T06:38:13;17.70;;;7.83;;
20966;SDS011;10642;50.682;18.510;2023-04-30T06:40:40;9.43;;;6.47;;
20966;SDS011;10642;50.682;18.510;2023-04-30T06:43:07;9.40;;;5.87;;
20966;SDS011;10642;50.682;18.510;2023-04-30T06:45:34;10.97;;;6.40;;
20966;SDS011;10642;50.682;18.510;2023-04-30T06:48:01;9.93;;;5.83;;
20966;SDS011;10642;50.682;18.510;2023-04-30T06:50:28;12.47;;;7.40;;
20966;SDS011;10642;50.682;18.510;2023-04-30T06:52:55;10.03;;;6.77;;
20966;SDS011;10642;50.682;18.510;2023-04-30T06:55:22;9.87;;;6.40;;
20966;SDS011;10642;50.682;18.510;2023-04-30T06:57:49;11.80;;;6.97;;
20966;SDS011;10642;50.682;18.510;2023-04-30T07:00:16;9.30;;;5.83;;
20966;SDS011;10642;50.682;18.510;2023-04-30T07:02:44;14.77;;;6.60;;
20966;SDS011;10642;50.682;18.510;2023-04-30T07:05:13;14.33;;;6.60;;
20966;SDS011;10642;50.682;18.510;2023-04-30T07:07:40;13.00;;;5.97;;
20966;SDS011;10642;50.682;18.510;2023-04-30T07:10:07;9.23;;;5.47;;
20966;SDS011;10642;50.682;18.510;2023-04-30T07:12:34;10.60;;;5.80;;
20966;SDS011;10642;50.682;18.510;2023-04-30T07:15:01;11.23;;;5.47;;
20966;SDS011;10642;50.682;18.510;2023-04-30T07:17:28;9.57;;;5.50;;
20966;SDS011;10642;50.682;18.510;2023-04-30T07:19:55;8.50;;;5.03;;
20966;SDS011;10642;50.682;18.510;2023-04-30T07:22:23;9.60;;;5.53;;
20966;SDS011;10642;50.682;18.510;2023-04-30T07:24:49;8.23;;;5.17;;
20966;SDS011;10642;50.682;18.510;2023-04-30T07:27:16;10.93;;;5.90;;
20966;SDS011;10642;50.682;18.510;2023-04-30T07:29:43;14.77;;;6.47;;
20966;SDS011;10642;50.682;18.510;2023-04-30T07:32:10;11.17;;;5.67;;
20966;SDS011;10642;50.682;18.510;2023-04-30T07:34:37;9.50;;;4.80;;
20966;SDS011;10642;50.682;18.510;2023-04-30T07:37:04;9.87;;;5.17;;
20966;SDS011;10642;50.682;18.510;2023-04-30T07:39:31;14.67;;;6.03;;
20966;SDS011;10642;50.682;18.510;2023-04-30T07:41:58;6.73;;;4.27;;
20966;SDS011;10642;50.682;18.510;2023-04-30T07:44:25;6.57;;;4.40;;
20966;SDS011;10642;50.682;18.510;2023-04-30T07:46:52;12.37;;;4.67;;
20966;SDS011;10642;50.682;18.510;2023-04-30T07:49:19;11.20;;;5.20;;
20966;SDS011;10642;50.682;18.510;2023-04-30T07:51:46;8.63;;;5.07;;
20966;SDS011;10642;50.682;18.510;2023-04-30T07:54:13;9.87;;;5.47;;
20966;SDS011;10642;50.682;18.510;2023-04-30T07:56:39;10.37;;;5.33;;
20966;SDS011;10642;50.682;18.510;2023-04-30T07:59:07;9.07;;;5.20;;
20966;SDS011;10642;50.682;18.510;2023-04-30T08:01:34;11.83;;;6.00;;
20966;SDS011;10642;50.682;18.510;2023-04-30T08:04:01;11.33;;;4.97;;
20966;SDS011;10642;50.682;18.510;2023-04-30T08:06:28;7.70;;;5.20;;
20966;SDS011;10642;50.682;18.510;2023-04-30T08:08:55;8.87;;;4.30;;
20966;SDS011;10642;50.682;18.510;2023-04-30T08:11:22;8.50;;;4.93;;
20966;SDS011;10642;50.682;18.510;2023-04-30T08:13:49;10.17;;;5.27;;
20966;SDS011;10642;50.682;18.510;2023-04-30T08:16:16;9.27;;;4.33;;
20966;SDS011;10642;50.682;18.510;2023-04-30T08:18:43;11.10;;;4.93;;
20966;SDS011;10642;50.682;18.510;2023-04-30T08:21:12;10.33;;;5.00;;
20966;SDS011;10642;50.682;18.510;2023-04-30T08:23:39;9.13;;;4.60;;
20966;SDS011;10642;50.682;18.510;2023-04-30T08:26:06;9.27;;;4.47;;
20966;SDS011;10642;50.682;18.510;2023-04-30T08:28:33;7.33;;;5.00;;
20966;SDS011;10642;50.682;18.510;2023-04-30T08:31:00;9.70;;;5.13;;
20966;SDS011;10642;50.682;18.510;2023-04-30T08:33:26;9.90;;;5.40;;
20966;SDS011;10642;50.682;18.510;2023-04-30T08:35:53;7.83;;;4.73;;
20966;SDS011;10642;50.682;18.510;2023-04-30T08:38:20;7.70;;;5.07;;
20966;SDS011;10642;50.682;18.510;2023-04-30T08:40:48;13.00;;;5.00;;
20966;SDS011;10642;50.682;18.510;2023-04-30T08:43:18;7.30;;;4.40;;
20966;SDS011;10642;50.682;18.510;2023-04-30T08:45:46;8.60;;;5.00;;
20966;SDS011;10642;50.682;18.510;2023-04-30T08:48:12;9.30;;;4.70;;
20966;SDS011;10642;50.682;18.510;2023-04-30T08:50:43;8.07;;;4.17;;
20966;SDS011;10642;50.682;18.510;2023-04-30T08:53:10;6.97;;;4.30;;
20966;SDS011;10642;50.682;18.510;2023-04-30T08:55:38;6.70;;;4.30;;
20966;SDS011;10642;50.682;18.510;2023-04-30T08:58:07;6.47;;;3.83;;
20966;SDS011;10642;50.682;18.510;2023-04-30T09:00:34;9.23;;;4.67;;
20966;SDS011;10642;50.682;18.510;2023-04-30T09:03:01;8.20;;;4.03;;
20966;SDS011;10642;50.682;18.510;2023-04-30T09:05:28;7.87;;;4.07;;
20966;SDS011;10642;50.682;18.510;2023-04-30T09:07:55;8.77;;;3.80;;
20966;SDS011;10642;50.682;18.510;2023-04-30T09:10:26;10.17;;;3.83;;
20966;SDS011;10642;50.682;18.510;2023-04-30T09:12:57;7.93;;;3.73;;
20966;SDS011;10642;50.682;18.510;2023-04-30T09:15:24;8.83;;;4.40;;
20966;SDS011;10642;50.682;18.510;2023-04-30T09:18:10;5.93;;;3.73;;
20966;SDS011;10642;50.682;18.510;2023-04-30T09:20:52;8.90;;;4.10;;
20966;SDS011;10642;50.682;18.510;2023-04-30T09:23:19;6.80;;;3.50;;
20966;SDS011;10642;50.682;18.510;2023-04-30T09:25:46;6.20;;;3.50;;
20966;SDS011;10642;50.682;18.510;2023-04-30T09:28:13;10.77;;;3.50;;
20966;SDS011;10642;50.682;18.510;2023-04-30T09:30:40;6.27;;;2.93;;
20966;SDS011;10642;50.682;18.510;2023-04-30T09:33:07;11.50;;;3.80;;
20966;SDS011;10642;50.682;18.510;2023-04-30T09:35:38;8.90;;;3.63;;
20966;SDS011;10642;50.682;18.510;2023-04-30T09:38:05;7.43;;;3.80;;
20966;SDS011;10642;50.682;18.510;2023-04-30T09:40:36;6.33;;;3.00;;
20966;SDS011;10642;50.682;18.510;2023-04-30T09:43:03;6.00;;;3.57;;
20966;SDS011;10642;50.682;18.510;2023-04-30T09:48:10;4.47;;;3.60;;
20966;SDS011;10642;50.682;18.510;2023-04-30T09:50:43;13.73;;;4.63;;
20966;SDS011;10642;50.682;18.510;2023-04-30T09:53:13;14.90;;;3.90;;
20966;SDS011;10642;50.682;18.510;2023-04-30T09:55:44;9.83;;;4.13;;
20966;SDS011;10642;50.682;18.510;2023-04-30T09:58:12;6.90;;;4.10;;
20966;SDS011;10642;50.682;18.510;2023-04-30T10:00:39;10.13;;;4.00;;
20966;SDS011;10642;50.682;18.510;2023-04-30T10:03:10;6.47;;;3.87;;
20966;SDS011;10642;50.682;18.510;2023-04-30T10:05:39;7.07;;;3.80;;
20966;SDS011;10642;50.682;18.510;2023-04-30T10:08:09;9.23;;;3.70;;
20966;SDS011;10642;50.682;18.510;2023-04-30T10:10:39;5.13;;;3.50;;
20966;SDS011;10642;50.682;18.510;2023-04-30T10:13:09;5.63;;;4.03;;
20966;SDS011;10642;50.682;18.510;2023-04-30T10:15:37;8.37;;;3.90;;
20966;SDS011;10642;50.682;18.510;2023-04-30T10:18:10;10.87;;;4.23;;
20966;SDS011;10642;50.682;18.510;2023-04-30T10:20:39;6.60;;;3.97;;
20966;SDS011;10642;50.682;18.510;2023-04-30T10:23:06;7.20;;;3.70;;
20966;SDS011;10642;50.682;18.510;2023-04-30T10:25:34;4.87;;;3.10;;
20966;SDS011;10642;50.682;18.510;2023-04-30T10:28:01;9.67;;;4.23;;
20966;SDS011;10642;50.682;18.510;2023-04-30T10:30:30;7.17;;;3.67;;
20966;SDS011;10642;50.682;18.510;2023-04-30T10:33:02;5.60;;;3.37;;
20966;SDS011;10642;50.682;18.510;2023-04-30T10:35:32;7.97;;;3.40;;
20966;SDS011;10642;50.682;18.510;2023-04-30T10:38:15;5.60;;;3.17;;
20966;SDS011;10642;50.682;18.510;2023-04-30T10:40:44;7.23;;;3.93;;
20966;SDS011;10642;50.682;18.510;2023-04-30T10:43:12;8.03;;;4.13;;
20966;SDS011;10642;50.682;18.510;2023-04-30T10:45:42;10.80;;;4.23;;
20966;SDS011;10642;50.682;18.510;2023-04-30T10:48:09;9.50;;;3.93;;
20966;SDS011;10642;50.682;18.510;2023-04-30T10:50:43;8.40;;;3.73;;
20966;SDS011;10642;50.682;18.510;2023-04-30T10:53:13;8.00;;;4.07;;
20966;SDS011;10642;50.682;18.510;2023-04-30T10:55:47;6.27;;;3.07;;
20966;SDS011;10642;50.682;18.510;2023-04-30T11:01:11;6.57;;;3.37;;
20966;SDS011;10642;50.682;18.510;2023-04-30T11:03:39;6.73;;;3.17;;
20966;SDS011;10642;50.682;18.510;2023-04-30T11:06:10;7.77;;;3.70;;
20966;SDS011;10642;50.682;18.510;2023-04-30T11:08:38;7.00;;;3.67;;
20966;SDS011;10642;50.682;18.510;2023-04-30T11:11:06;4.43;;;3.13;;
20966;SDS011;10642;50.682;18.510;2023-04-30T11:13:41;5.67;;;3.50;;
20966;SDS011;10642;50.682;18.510;2023-04-30T11:16:09;6.47;;;3.63;;
20966;SDS011;10642;50.682;18.510;2023-04-30T11:18:40;9.23;;;4.27;;
20966;SDS011;10642;50.682;18.510;2023-04-30T11:21:07;6.57;;;3.83;;
20966;SDS011;10642;50.682;18.510;2023-04-30T11:23:35;6.67;;;3.80;;
20966;SDS011;10642;50.682;18.510;2023-04-30T11:26:07;6.33;;;4.00;;
20966;SDS011;10642;50.682;18.510;2023-04-30T11:28:35;6.17;;;4.30;;
20966;SDS011;10642;50.682;18.510;2023-04-30T11:31:03;6.37;;;4.00;;
20966;SDS011;10642;50.682;18.510;2023-04-30T11:33:31;8.90;;;3.93;;
20966;SDS011;10642;50.682;18.510;2023-04-30T11:35:59;9.10;;;3.83;;
20966;SDS011;10642;50.682;18.510;2023-04-30T11:40:53;8.13;;;4.13;;
20966;SDS011;10642;50.682;18.510;2023-04-30T11:43:21;4.97;;;3.43;;
20966;SDS011;10642;50.682;18.510;2023-04-30T11:45:58;9.10;;;4.73;;
20966;SDS011;10642;50.682;18.510;2023-04-30T11:48:35;8.97;;;4.10;;
20966;SDS011;10642;50.682;18.510;2023-04-30T11:51:03;11.73;;;4.37;;
20966;SDS011;10642;50.682;18.510;2023-04-30T11:53:31;7.83;;;3.90;;
20966;SDS011;10642;50.682;18.510;2023-04-30T11:56:01;7.23;;;4.10;;
20966;SDS011;10642;50.682;18.510;2023-04-30T11:58:31;7.47;;;3.97;;
20966;SDS011;10642;50.682;18.510;2023-04-30T12:00:59;8.47;;;3.90;;
20966;SDS011;10642;50.682;18.510;2023-04-30T12:03:26;6.63;;;4.00;;
20966;SDS011;10642;50.682;18.510;2023-04-30T12:05:53;7.70;;;3.80;;
20966;SDS011;10642;50.682;18.510;2023-04-30T12:08:20;8.00;;;3.30;;
20966;SDS011;10642;50.682;18.510;2023-04-30T12:10:47;7.27;;;3.93;;
20966;SDS011;10642;50.682;18.510;2023-04-30T12:13:14;8.47;;;3.80;;
20966;SDS011;10642;50.682;18.510;2023-04-30T12:15:55;7.77;;;3.67;;
20966;SDS011;10642;50.682;18.510;2023-04-30T12:18:23;10.77;;;3.60;;
20966;SDS011;10642;50.682;18.510;2023-04-30T12:20:50;6.83;;;3.67;;
20966;SDS011;10642;50.682;18.510;2023-04-30T12:23:18;7.10;;;3.77;;
20966;SDS011;10642;50.682;18.510;2023-04-30T12:25:45;7.60;;;3.40;;
20966;SDS011;10642;50.682;18.510;2023-04-30T12:28:13;8.73;;;3.67;;
20966;SDS011;10642;50.682;18.510;2023-04-30T12:30:40;7.30;;;3.50;;
20966;SDS011;10642;50.682;18.510;2023-04-30T12:33:08;8.50;;;2.87;;
20966;SDS011;10642;50.682;18.510;2023-04-30T12:35:36;10.40;;;3.40;;
20966;SDS011;10642;50.682;18.510;2023-04-30T12:38:07;8.40;;;3.77;;
20966;SDS011;10642;50.682;18.510;2023-04-30T12:40:35;6.93;;;2.93;;
20966;SDS011;10642;50.682;18.510;2023-04-30T12:43:03;12.70;;;5.77;;
20966;SDS011;10642;50.682;18.510;2023-04-30T12:45:47;5.90;;;3.37;;
20966;SDS011;10642;50.682;18.510;2023-04-30T12:48:14;7.17;;;2.67;;
20966;SDS011;10642;50.682;18.510;2023-04-30T12:50:41;6.83;;;3.20;;
20966;SDS011;10642;50.682;18.510;2023-04-30T12:53:12;4.97;;;2.40;;
20966;SDS011;10642;50.682;18.510;2023-04-30T12:55:39;5.77;;;2.70;;
20966;SDS011;10642;50.682;18.510;2023-04-30T12:58:08;9.30;;;2.73;;
20966;SDS011;10642;50.682;18.510;2023-04-30T13:00:42;4.27;;;2.30;;
20966;SDS011;10642;50.682;18.510;2023-04-30T13:03:13;6.93;;;2.90;;
20966;SDS011;10642;50.682;18.510;2023-04-30T13:05:40;4.73;;;2.37;;
20966;SDS011;10642;50.682;18.510;2023-04-30T13:08:07;4.77;;;2.37;;
20966;SDS011;10642;50.682;18.510;2023-04-30T13:10:35;5.80;;;2.50;;
20966;SDS011;10642;50.682;18.510;2023-04-30T13:13:02;6.47;;;2.20;;
20966;SDS011;10642;50.682;18.510;2023-04-30T13:15:29;7.87;;;2.80;;
20966;SDS011;10642;50.682;18.510;2023-04-30T13:17:56;10.40;;;2.67;;
20966;SDS011;10642;50.682;18.510;2023-04-30T13:20:23;5.13;;;3.10;;
20966;SDS011;10642;50.682;18.510;2023-04-30T13:22:51;6.07;;;2.57;;
20966;SDS011;10642;50.682;18.510;2023-04-30T13:25:18;4.83;;;2.47;;
20966;SDS011;10642;50.682;18.510;2023-04-30T13:27:45;5.13;;;2.37;;
20966;SDS011;10642;50.682;18.510;2023-04-30T13:30:12;5.07;;;2.47;;
20966;SDS011;10642;50.682;18.510;2023-04-30T13:32:40;4.60;;;2.30;;
20966;SDS011;10642;50.682;18.510;2023-04-30T13:35:08;6.00;;;2.60;;
20966;SDS011;10642;50.682;18.510;2023-04-30T13:37:35;5.53;;;2.50;;
20966;SDS011;10642;50.682;18.510;2023-04-30T13:40:02;5.07;;;2.10;;
20966;SDS011;10642;50.682;18.510;2023-04-30T13:42:29;4.40;;;1.90;;
20966;SDS011;10642;50.682;18.510;2023-04-30T13:44:56;6.20;;;2.00;;
20966;SDS011;10642;50.682;18.510;2023-04-30T13:47:23;5.30;;;2.37;;
20966;SDS011;10642;50.682;18.510;2023-04-30T13:49:50;7.43;;;2.87;;
20966;SDS011;10642;50.682;18.510;2023-04-30T13:52:17;4.90;;;2.23;;
20966;SDS011;10642;50.682;18.510;2023-04-30T13:54:44;8.30;;;2.80;;
20966;SDS011;10642;50.682;18.510;2023-04-30T13:57:11;7.73;;;2.97;;
20966;SDS011;10642;50.682;18.510;2023-04-30T13:59:38;3.63;;;2.23;;
20966;SDS011;10642;50.682;18.510;2023-04-30T14:02:05;5.47;;;2.30;;
20966;SDS011;10642;50.682;18.510;2023-04-30T14:04:32;4.83;;;1.90;;
20966;SDS011;10642;50.682;18.510;2023-04-30T14:07:00;8.10;;;2.13;;
20966;SDS011;10642;50.682;18.510;2023-04-30T14:09:27;5.50;;;1.93;;
20966;SDS011;10642;50.682;18.510;2023-04-30T14:11:54;6.37;;;2.10;;
20966;SDS011;10642;50.682;18.510;2023-04-30T14:14:24;7.07;;;2.20;;
20966;SDS011;10642;50.682;18.510;2023-04-30T14:16:52;3.23;;;1.80;;
20966;SDS011;10642;50.682;18.510;2023-04-30T14:19:20;6.73;;;2.10;;
20966;SDS011;10642;50.682;18.510;2023-04-30T14:21:48;5.43;;;1.80;;
20966;SDS011;10642;50.682;18.510;2023-04-30T14:24:15;9.40;;;2.60;;
20966;SDS011;10642;50.682;18.510;2023-04-30T14:26:41;5.47;;;1.70;;
20966;SDS011;10642;50.682;18.510;2023-04-30T14:29:08;5.83;;;1.97;;
20966;SDS011;10642;50.682;18.510;2023-04-30T14:31:35;6.53;;;2.03;;
20966;SDS011;10642;50.682;18.510;2023-04-30T14:34:02;4.73;;;1.90;;
20966;SDS011;10642;50.682;18.510;2023-04-30T14:36:29;2.50;;;1.63;;
20966;SDS011;10642;50.682;18.510;2023-04-30T14:38:56;9.10;;;1.60;;
20966;SDS011;10642;50.682;18.510;2023-04-30T14:41:24;7.30;;;2.07;;
20966;SDS011;10642;50.682;18.510;2023-04-30T14:43:51;7.37;;;2.27;;
20966;SDS011;10642;50.682;18.510;2023-04-30T14:46:18;5.90;;;1.70;;
20966;SDS011;10642;50.682;18.510;2023-04-30T14:48:45;5.37;;;1.97;;
20966;SDS011;10642;50.682;18.510;2023-04-30T14:51:12;9.43;;;2.03;;
20966;SDS011;10642;50.682;18.510;2023-04-30T14:53:39;5.17;;;1.70;;